createdAt,value
2022-12-31T00:00:01.692Z,7.62
2022-12-31T00:00:11.701Z,7.64
2022-12-31T00:00:21.724Z,7.62
2022-12-31T00:00:31.721Z,7.62
2022-12-31T00:00:41.714Z,7.62
2022-12-31T00:00:51.711Z,7.64
2022-12-31T00:01:01.664Z,7.62
2022-12-31T00:01:11.670Z,7.66
2022-12-31T00:01:21.673Z,7.66
2022-12-31T00:01:31.685Z,7.66
2022-12-31T00:01:41.707Z,7.64
2022-12-31T00:01:51.715Z,7.64
2022-12-31T00:02:01.795Z,7.66
2022-12-31T00:02:11.774Z,7.68
2022-12-31T00:02:21.761Z,7.68
2022-12-31T00:02:31.848Z,7.68
2022-12-31T00:02:41.835Z,7.68
2022-12-31T00:02:51.736Z,7.69
2022-12-31T00:03:01.809Z,7.68
2022-12-31T00:03:11.788Z,7.68
2022-12-31T00:03:21.732Z,7.69
2022-12-31T00:03:31.747Z,7.69
2022-12-31T00:03:41.691Z,7.69
2022-12-31T00:03:51.678Z,7.69
2022-12-31T00:04:01.676Z,7.69
2022-12-31T00:04:11.694Z,7.70
2022-12-31T00:04:21.677Z,7.70
2022-12-31T00:04:31.683Z,7.70
2022-12-31T00:04:41.755Z,7.70
2022-12-31T00:04:51.683Z,7.70
2022-12-31T00:05:01.697Z,7.70
2022-12-31T00:05:11.691Z,7.69
2022-12-31T00:05:21.697Z,7.69
2022-12-31T00:05:31.703Z,7.69
2022-12-31T00:05:41.758Z,7.69
2022-12-31T00:05:51.720Z,7.69
2022-12-31T00:06:01.688Z,7.70
2022-12-31T00:06:11.690Z,7.69
2022-12-31T00:06:21.704Z,7.70
2022-12-31T00:06:31.702Z,7.70
2022-12-31T00:06:41.703Z,7.70
2022-12-31T00:06:51.692Z,7.72
2022-12-31T00:07:01.744Z,7.72
2022-12-31T00:07:11.702Z,7.72
2022-12-31T00:07:21.713Z,7.72
2022-12-31T00:07:50.421Z,7.72
2022-12-31T00:08:00.401Z,7.72
2022-12-31T00:08:10.409Z,7.73
2022-12-31T00:08:20.415Z,7.72
2022-12-31T00:08:30.408Z,7.75
2022-12-31T00:08:40.409Z,7.72
2022-12-31T00:08:50.418Z,7.72
2022-12-31T00:09:00.404Z,7.72
2022-12-31T00:09:10.416Z,7.72
2022-12-31T00:09:20.416Z,7.75
2022-12-31T00:09:30.420Z,7.73
2022-12-31T00:09:40.414Z,7.75
2022-12-31T00:09:50.488Z,7.75
2022-12-31T00:10:00.421Z,7.73
2022-12-31T00:10:10.419Z,7.76
2022-12-31T00:10:20.431Z,7.75
2022-12-31T00:10:30.411Z,7.78
2022-12-31T00:10:40.415Z,7.78
2022-12-31T00:10:50.437Z,7.78
2022-12-31T00:11:00.413Z,7.79
2022-12-31T00:11:10.444Z,7.76
2022-12-31T00:11:20.415Z,7.79
2022-12-31T00:11:30.421Z,7.79
2022-12-31T00:11:40.421Z,7.79
2022-12-31T00:11:50.425Z,7.79
2022-12-31T00:12:00.423Z,7.79
2022-12-31T00:12:10.458Z,7.83
2022-12-31T00:12:20.424Z,7.80
2022-12-31T00:12:30.425Z,7.80
2022-12-31T00:12:40.440Z,7.84
2022-12-31T00:12:50.444Z,7.80
2022-12-31T00:13:00.499Z,7.83
2022-12-31T00:13:10.441Z,7.83
2022-12-31T00:13:20.457Z,7.83
2022-12-31T00:13:30.428Z,7.84
2022-12-31T00:13:40.448Z,7.83
2022-12-31T00:13:50.439Z,7.84
2022-12-31T00:14:00.439Z,7.84
2022-12-31T00:14:10.440Z,7.84
2022-12-31T00:14:20.437Z,7.86
2022-12-31T00:14:30.437Z,7.86
2022-12-31T00:14:40.459Z,7.84
2022-12-31T00:14:50.485Z,7.84
2022-12-31T00:15:00.443Z,7.86
2022-12-31T00:15:10.444Z,7.84
2022-12-31T00:15:20.511Z,7.84
2022-12-31T00:15:30.451Z,7.84
2022-12-31T00:15:40.441Z,7.86
2022-12-31T00:15:50.444Z,7.86
2022-12-31T00:16:00.446Z,7.86
2022-12-31T00:16:12.485Z,7.84
2022-12-31T00:16:20.512Z,7.86
2022-12-31T00:16:30.470Z,7.84
2022-12-31T00:16:40.494Z,7.84
2022-12-31T00:16:50.500Z,7.86
2022-12-31T00:17:00.529Z,7.86
2022-12-31T00:17:10.579Z,7.86
2022-12-31T00:17:20.450Z,7.86
2022-12-31T00:17:30.448Z,7.87
2022-12-31T00:17:40.450Z,7.86
2022-12-31T00:17:50.451Z,7.87
2022-12-31T00:18:00.463Z,7.87
2022-12-31T00:18:10.448Z,7.87
2022-12-31T00:18:20.452Z,7.87
2022-12-31T00:18:30.474Z,7.86
2022-12-31T00:18:40.451Z,7.87
2022-12-31T00:18:50.470Z,7.87
2022-12-31T00:19:00.462Z,7.88
2022-12-31T00:19:10.477Z,7.88
2022-12-31T00:19:20.492Z,7.88
2022-12-31T00:19:30.470Z,7.87
2022-12-31T00:19:40.469Z,7.87
2022-12-31T00:19:50.463Z,7.88
2022-12-31T00:20:00.466Z,7.87
2022-12-31T00:20:10.469Z,7.88
2022-12-31T00:20:20.455Z,7.87
2022-12-31T00:20:30.460Z,7.87
2022-12-31T00:20:40.476Z,7.86
2022-12-31T00:20:50.473Z,7.88
2022-12-31T00:21:00.466Z,7.88
2022-12-31T00:21:10.460Z,7.87
2022-12-31T00:21:20.469Z,7.87
2022-12-31T00:21:30.471Z,7.88
2022-12-31T00:21:40.481Z,7.88
2022-12-31T00:21:50.477Z,7.90
2022-12-31T00:22:00.487Z,7.91
2022-12-31T00:22:10.477Z,7.93
2022-12-31T00:22:20.469Z,7.93
2022-12-31T00:22:30.481Z,7.94
2022-12-31T00:22:40.484Z,7.94
2022-12-31T00:22:50.477Z,7.96
2022-12-31T00:23:00.475Z,7.96
2022-12-31T00:23:10.494Z,7.96
2022-12-31T00:23:20.513Z,7.97
2022-12-31T00:23:30.492Z,7.96
2022-12-31T00:23:40.480Z,7.96
2022-12-31T00:23:50.472Z,7.96
2022-12-31T00:24:00.475Z,7.96
2022-12-31T00:24:10.485Z,7.96
2022-12-31T00:24:20.482Z,7.96
2022-12-31T00:24:30.487Z,7.96
2022-12-31T00:24:40.492Z,7.97
2022-12-31T00:24:50.481Z,7.96
2022-12-31T00:25:00.479Z,7.96
2022-12-31T00:25:10.484Z,7.94
2022-12-31T00:25:20.478Z,7.94
2022-12-31T00:25:30.498Z,7.94
2022-12-31T00:25:40.491Z,7.94
2022-12-31T00:25:50.483Z,7.94
2022-12-31T00:26:00.490Z,7.94
2022-12-31T00:26:10.500Z,7.96
2022-12-31T00:26:20.492Z,7.93
2022-12-31T00:26:30.486Z,7.94
2022-12-31T00:26:40.510Z,7.93
2022-12-31T00:26:50.485Z,7.94
2022-12-31T00:27:00.504Z,7.93
2022-12-31T00:27:10.493Z,7.96
2022-12-31T00:27:20.504Z,7.94
2022-12-31T00:27:30.499Z,7.94
2022-12-31T00:27:40.505Z,7.94
2022-12-31T00:27:50.489Z,7.96
2022-12-31T00:28:01.324Z,7.96
2022-12-31T00:28:10.521Z,7.96
2022-12-31T00:28:20.496Z,7.96
2022-12-31T00:28:30.499Z,7.96
2022-12-31T00:28:40.513Z,7.94
2022-12-31T00:28:50.501Z,7.97
2022-12-31T00:29:00.517Z,7.94
2022-12-31T00:29:10.497Z,7.94
2022-12-31T00:29:20.500Z,7.96
2022-12-31T00:29:30.506Z,7.97
2022-12-31T00:29:40.525Z,7.97
2022-12-31T00:29:50.511Z,7.97
2022-12-31T00:30:04.414Z,7.98
2022-12-31T00:30:10.521Z,7.98
2022-12-31T00:30:20.504Z,7.97
2022-12-31T00:30:30.542Z,7.97
2022-12-31T00:30:40.538Z,7.97
2022-12-31T00:30:50.551Z,7.97
2022-12-31T00:31:00.533Z,7.98
2022-12-31T00:31:10.570Z,7.97
2022-12-31T00:31:20.540Z,7.96
2022-12-31T00:31:30.519Z,7.97
2022-12-31T00:31:40.515Z,7.97
2022-12-31T00:31:50.525Z,7.96
2022-12-31T00:32:00.519Z,7.96
2022-12-31T00:32:10.516Z,7.97
2022-12-31T00:32:20.511Z,7.98
2022-12-31T00:32:30.514Z,7.97
2022-12-31T00:32:40.516Z,7.98
2022-12-31T00:32:50.524Z,7.98
2022-12-31T00:33:00.520Z,7.98
2022-12-31T00:33:10.518Z,8.01
2022-12-31T00:33:20.525Z,8.01
2022-12-31T00:33:30.529Z,8.01
2022-12-31T00:33:40.519Z,8.01
2022-12-31T00:33:50.523Z,8.02
2022-12-31T00:34:00.523Z,8.02
2022-12-31T00:34:10.519Z,8.02
2022-12-31T00:34:20.529Z,8.01
2022-12-31T00:34:30.518Z,8.02
2022-12-31T00:34:40.519Z,8.02
2022-12-31T00:34:50.546Z,8.02
2022-12-31T00:35:00.529Z,8.04
2022-12-31T00:35:10.576Z,8.04
2022-12-31T00:35:20.533Z,8.04
2022-12-31T00:35:30.528Z,8.04
2022-12-31T00:35:40.526Z,8.04
2022-12-31T00:35:50.541Z,8.05
2022-12-31T00:36:00.536Z,8.05
2022-12-31T00:36:10.538Z,8.06
2022-12-31T00:36:20.525Z,8.05
2022-12-31T00:36:30.538Z,8.05
2022-12-31T00:36:40.530Z,8.06
2022-12-31T00:36:50.545Z,8.06
2022-12-31T00:37:00.535Z,8.08
2022-12-31T00:37:10.538Z,8.08
2022-12-31T00:37:20.554Z,8.06
2022-12-31T00:37:30.537Z,8.08
2022-12-31T00:37:40.542Z,8.08
2022-12-31T00:37:50.542Z,8.08
2022-12-31T00:38:00.565Z,8.09
2022-12-31T00:38:10.535Z,8.08
2022-12-31T00:38:20.549Z,8.09
2022-12-31T00:38:30.549Z,8.09
2022-12-31T00:38:40.533Z,8.08
2022-12-31T00:38:50.540Z,8.08
2022-12-31T00:39:00.543Z,8.08
2022-12-31T00:39:10.545Z,8.08
2022-12-31T00:39:20.541Z,8.11
2022-12-31T00:39:30.543Z,8.11
2022-12-31T00:39:40.539Z,8.11
2022-12-31T00:39:50.578Z,8.12
2022-12-31T00:40:00.549Z,8.12
2022-12-31T00:40:10.551Z,8.12
2022-12-31T00:40:20.573Z,8.12
2022-12-31T00:40:30.553Z,8.13
2022-12-31T00:40:40.548Z,8.13
2022-12-31T00:40:50.552Z,8.15
2022-12-31T00:41:00.566Z,8.13
2022-12-31T00:41:10.548Z,8.13
2022-12-31T00:41:20.554Z,8.15
2022-12-31T00:41:30.572Z,8.15
2022-12-31T00:41:40.560Z,8.15
2022-12-31T00:41:50.547Z,8.15
2022-12-31T00:42:00.566Z,8.13
2022-12-31T00:42:10.565Z,8.15
2022-12-31T00:42:20.566Z,8.15
2022-12-31T00:42:30.571Z,8.15
2022-12-31T00:42:40.558Z,8.15
2022-12-31T00:42:50.554Z,8.16
2022-12-31T00:43:00.566Z,8.15
2022-12-31T00:43:10.553Z,8.15
2022-12-31T00:43:20.555Z,8.16
2022-12-31T00:43:30.580Z,8.18
2022-12-31T00:43:40.557Z,8.16
2022-12-31T00:43:50.573Z,8.18
2022-12-31T00:44:00.574Z,8.18
2022-12-31T00:44:10.576Z,8.20
2022-12-31T00:44:20.577Z,8.18
2022-12-31T00:44:30.563Z,8.20
2022-12-31T00:44:40.567Z,8.20
2022-12-31T00:44:50.615Z,8.20
2022-12-31T00:45:00.575Z,8.20
2022-12-31T00:45:10.572Z,8.20
2022-12-31T00:45:20.574Z,8.21
2022-12-31T00:45:30.577Z,8.21
2022-12-31T00:45:40.566Z,8.20
2022-12-31T00:45:50.614Z,8.18
2022-12-31T00:46:00.590Z,8.20
2022-12-31T00:46:10.628Z,8.21
2022-12-31T00:46:20.669Z,8.20
2022-12-31T00:46:30.634Z,8.20
2022-12-31T00:46:58.731Z,8.20
2022-12-31T00:47:08.731Z,8.18
2022-12-31T00:47:18.738Z,8.20
2022-12-31T00:47:28.734Z,8.18
2022-12-31T00:47:38.733Z,8.18
2022-12-31T00:47:48.737Z,8.18
2022-12-31T00:47:58.739Z,8.18
2022-12-31T00:48:08.752Z,8.16
2022-12-31T00:48:18.758Z,8.18
2022-12-31T00:48:28.751Z,8.16
2022-12-31T00:48:38.725Z,8.16
2022-12-31T00:48:48.740Z,8.16
2022-12-31T00:48:58.769Z,8.16
2022-12-31T00:49:08.742Z,8.18
2022-12-31T00:49:18.743Z,8.20
2022-12-31T00:49:28.740Z,8.21
2022-12-31T00:49:38.748Z,8.21
2022-12-31T00:49:48.762Z,8.23
2022-12-31T00:49:58.750Z,8.23
2022-12-31T00:50:08.757Z,8.24
2022-12-31T00:50:18.748Z,8.24
2022-12-31T00:50:28.748Z,8.24
2022-12-31T00:50:38.748Z,8.24
2022-12-31T00:50:48.752Z,8.24
2022-12-31T00:50:58.758Z,8.24
2022-12-31T00:51:08.756Z,8.24
2022-12-31T00:51:18.764Z,8.26
2022-12-31T00:51:28.759Z,8.27
2022-12-31T00:51:38.758Z,8.26
2022-12-31T00:51:48.764Z,8.26
2022-12-31T00:51:58.749Z,8.26
2022-12-31T00:52:08.760Z,8.26
2022-12-31T00:52:18.771Z,8.27
2022-12-31T00:52:28.767Z,8.26
2022-12-31T00:52:38.777Z,8.26
2022-12-31T00:52:48.775Z,8.27
2022-12-31T00:52:58.768Z,8.26
2022-12-31T00:53:08.768Z,8.27
2022-12-31T00:53:18.763Z,8.24
2022-12-31T00:53:28.752Z,8.26
2022-12-31T00:53:38.762Z,8.26
2022-12-31T00:53:48.774Z,8.26
2022-12-31T00:53:58.784Z,8.24
2022-12-31T00:54:08.766Z,8.24
2022-12-31T00:54:18.774Z,8.24
2022-12-31T00:54:28.775Z,8.27
2022-12-31T00:54:38.773Z,8.26
2022-12-31T00:54:48.772Z,8.26
2022-12-31T00:54:58.785Z,8.27
2022-12-31T00:55:08.786Z,8.27
2022-12-31T00:55:18.769Z,8.27
2022-12-31T00:55:28.778Z,8.29
2022-12-31T00:55:38.779Z,8.30
2022-12-31T00:55:48.774Z,8.27
2022-12-31T00:55:58.778Z,8.30
2022-12-31T00:56:08.788Z,8.30
2022-12-31T00:56:19.659Z,8.30
2022-12-31T00:56:28.783Z,8.30
2022-12-31T00:56:38.779Z,8.29
2022-12-31T00:56:48.782Z,8.30
2022-12-31T00:56:58.787Z,8.30
2022-12-31T00:57:08.793Z,8.30
2022-12-31T00:57:18.790Z,8.30
2022-12-31T00:57:28.788Z,8.30
2022-12-31T00:57:38.786Z,8.30
2022-12-31T00:57:48.788Z,8.29
2022-12-31T00:57:58.786Z,8.29
2022-12-31T00:58:08.794Z,8.30
2022-12-31T00:58:18.792Z,8.30
2022-12-31T00:58:28.797Z,8.30
2022-12-31T00:58:38.796Z,8.31
2022-12-31T00:58:48.806Z,8.30
2022-12-31T00:58:58.803Z,8.30
2022-12-31T00:59:08.804Z,8.31
2022-12-31T00:59:18.811Z,8.31
2022-12-31T00:59:28.791Z,8.30
2022-12-31T00:59:38.791Z,8.31
2022-12-31T00:59:48.795Z,8.31
2022-12-31T00:59:58.809Z,8.33
2022-12-31T01:00:08.806Z,8.33
2022-12-31T01:00:18.815Z,8.31
2022-12-31T01:00:28.823Z,8.33
2022-12-31T01:00:38.804Z,8.33
2022-12-31T01:00:48.799Z,8.33
2022-12-31T01:00:58.806Z,8.33
2022-12-31T01:01:09.000Z,8.34
2022-12-31T01:01:18.981Z,8.33
2022-12-31T01:01:28.923Z,8.34
2022-12-31T01:01:38.976Z,8.34
2022-12-31T01:01:48.881Z,8.34
2022-12-31T01:01:58.911Z,8.36
2022-12-31T01:02:09.010Z,8.34
2022-12-31T01:02:18.974Z,8.34
2022-12-31T01:02:29.004Z,8.34
2022-12-31T01:02:38.925Z,8.38
2022-12-31T01:02:49.007Z,8.38
2022-12-31T01:02:58.971Z,8.38
2022-12-31T01:03:08.821Z,8.38
2022-12-31T01:03:18.860Z,8.38
2022-12-31T01:03:28.838Z,8.38
2022-12-31T01:03:38.836Z,8.39
2022-12-31T01:03:48.824Z,8.38
2022-12-31T01:03:58.805Z,8.39
2022-12-31T01:04:08.814Z,8.39
2022-12-31T01:04:18.808Z,8.38
2022-12-31T01:04:28.812Z,8.39
2022-12-31T01:04:38.811Z,8.39
2022-12-31T01:04:48.808Z,8.38
2022-12-31T01:04:58.863Z,8.39
2022-12-31T01:05:08.827Z,8.36
2022-12-31T01:05:18.809Z,8.36
2022-12-31T01:05:28.808Z,8.38
2022-12-31T01:05:38.811Z,8.36
2022-12-31T01:05:48.806Z,8.38
2022-12-31T01:05:58.809Z,8.38
2022-12-31T01:06:08.813Z,8.38
2022-12-31T01:06:18.817Z,8.39
2022-12-31T01:06:28.821Z,8.39
2022-12-31T01:06:38.839Z,8.39
2022-12-31T01:06:48.817Z,8.41
2022-12-31T01:06:58.818Z,8.39
2022-12-31T01:07:08.833Z,8.39
2022-12-31T01:07:18.821Z,8.39
2022-12-31T01:07:28.823Z,8.39
2022-12-31T01:07:38.818Z,8.39
2022-12-31T01:07:48.832Z,8.41
2022-12-31T01:07:58.823Z,8.39
2022-12-31T01:08:08.826Z,8.39
2022-12-31T01:08:18.822Z,8.41
2022-12-31T01:08:28.841Z,8.41
2022-12-31T01:08:38.821Z,8.39
2022-12-31T01:08:48.841Z,8.39
2022-12-31T01:08:58.829Z,8.39
2022-12-31T01:09:08.822Z,8.39
2022-12-31T01:09:18.829Z,8.41
2022-12-31T01:09:28.836Z,8.39
2022-12-31T01:09:38.825Z,8.39
2022-12-31T01:09:48.823Z,8.41
2022-12-31T01:09:58.845Z,8.41
2022-12-31T01:10:08.838Z,8.42
2022-12-31T01:10:18.825Z,8.42
2022-12-31T01:10:28.832Z,8.42
2022-12-31T01:10:38.846Z,8.42
2022-12-31T01:10:48.833Z,8.42
2022-12-31T01:10:58.841Z,8.42
2022-12-31T01:11:08.853Z,8.42
2022-12-31T01:11:18.833Z,8.42
2022-12-31T01:11:28.837Z,8.44
2022-12-31T01:11:38.841Z,8.44
2022-12-31T01:11:48.834Z,8.44
2022-12-31T01:11:58.837Z,8.42
2022-12-31T01:12:08.851Z,8.45
2022-12-31T01:12:18.841Z,8.44
2022-12-31T01:12:28.843Z,8.44
2022-12-31T01:12:38.849Z,8.45
2022-12-31T01:12:48.838Z,8.45
2022-12-31T01:12:58.838Z,8.44
2022-12-31T01:13:08.857Z,8.47
2022-12-31T01:13:18.842Z,8.47
2022-12-31T01:13:28.868Z,8.47
2022-12-31T01:13:38.849Z,8.47
2022-12-31T01:13:48.844Z,8.47
2022-12-31T01:13:58.844Z,8.47
2022-12-31T01:14:08.850Z,8.47
2022-12-31T01:14:18.848Z,8.48
2022-12-31T01:14:28.867Z,8.47
2022-12-31T01:14:38.859Z,8.49
2022-12-31T01:14:48.848Z,8.48
2022-12-31T01:14:58.849Z,8.48
2022-12-31T01:15:08.867Z,8.49
2022-12-31T01:15:18.859Z,8.48
2022-12-31T01:15:28.885Z,8.48
2022-12-31T01:15:38.893Z,8.49
2022-12-31T01:15:48.917Z,8.48
2022-12-31T01:15:58.895Z,8.49
2022-12-31T01:16:08.945Z,8.48
2022-12-31T01:16:18.860Z,8.48
2022-12-31T01:16:28.859Z,8.49
2022-12-31T01:16:38.878Z,8.48
2022-12-31T01:16:48.869Z,8.49
2022-12-31T01:16:58.860Z,8.49
2022-12-31T01:17:08.870Z,8.49
2022-12-31T01:17:18.864Z,8.49
2022-12-31T01:17:28.872Z,8.48
2022-12-31T01:17:38.876Z,8.49
2022-12-31T01:17:48.862Z,8.49
2022-12-31T01:17:58.869Z,8.51
2022-12-31T01:18:08.871Z,8.51
2022-12-31T01:18:18.882Z,8.52
2022-12-31T01:18:28.870Z,8.51
2022-12-31T01:18:38.869Z,8.51
2022-12-31T01:18:48.865Z,8.51
2022-12-31T01:18:58.868Z,8.52
2022-12-31T01:19:08.875Z,8.52
2022-12-31T01:19:18.866Z,8.52
2022-12-31T01:19:28.881Z,8.52
2022-12-31T01:19:38.875Z,8.54
2022-12-31T01:19:48.869Z,8.54
2022-12-31T01:19:58.883Z,8.57
2022-12-31T01:20:08.881Z,8.55
2022-12-31T01:20:18.880Z,8.57
2022-12-31T01:20:28.870Z,8.57
2022-12-31T01:20:38.898Z,8.59
2022-12-31T01:20:48.869Z,8.57
2022-12-31T01:20:58.872Z,8.57
2022-12-31T01:21:08.870Z,8.59
2022-12-31T01:21:18.875Z,8.57
2022-12-31T01:21:28.877Z,8.55
2022-12-31T01:21:38.889Z,8.55
2022-12-31T01:21:48.912Z,8.57
2022-12-31T01:21:58.874Z,8.55
2022-12-31T01:22:08.877Z,8.55
2022-12-31T01:22:18.885Z,8.54
2022-12-31T01:22:28.917Z,8.57
2022-12-31T01:22:38.877Z,8.55
2022-12-31T01:22:48.879Z,8.57
2022-12-31T01:22:58.909Z,8.59
2022-12-31T01:23:08.880Z,8.57
2022-12-31T01:23:18.885Z,8.57
2022-12-31T01:23:28.882Z,8.57
2022-12-31T01:23:38.888Z,8.59
2022-12-31T01:23:48.901Z,8.57
2022-12-31T01:23:58.901Z,8.59
2022-12-31T01:24:08.884Z,8.57
2022-12-31T01:24:18.887Z,8.57
2022-12-31T01:24:28.901Z,8.59
2022-12-31T01:24:38.892Z,8.57
2022-12-31T01:24:48.885Z,8.57
2022-12-31T01:24:58.890Z,8.59
2022-12-31T01:25:08.896Z,8.59
2022-12-31T01:25:18.901Z,8.59
2022-12-31T01:25:28.891Z,8.59
2022-12-31T01:25:38.904Z,8.59
2022-12-31T01:25:48.897Z,8.60
2022-12-31T01:25:58.894Z,8.59
2022-12-31T01:26:08.891Z,8.57
2022-12-31T01:26:18.912Z,8.59
2022-12-31T01:26:28.903Z,8.57
2022-12-31T01:26:39.658Z,8.60
2022-12-31T01:26:48.908Z,8.60
2022-12-31T01:26:58.904Z,8.60
2022-12-31T01:27:08.901Z,8.59
2022-12-31T01:27:18.902Z,8.60
2022-12-31T01:27:28.907Z,8.62
2022-12-31T01:27:38.898Z,8.62
2022-12-31T01:27:48.905Z,8.63
2022-12-31T01:27:58.921Z,8.63
2022-12-31T01:28:08.899Z,8.63
2022-12-31T01:28:18.927Z,8.64
2022-12-31T01:28:28.908Z,8.64
2022-12-31T01:28:38.901Z,8.66
2022-12-31T01:28:48.907Z,8.64
2022-12-31T01:28:58.914Z,8.66
2022-12-31T01:29:08.911Z,8.66
2022-12-31T01:29:18.909Z,8.66
2022-12-31T01:29:28.904Z,8.64
2022-12-31T01:29:38.914Z,8.67
2022-12-31T01:29:48.914Z,8.67
2022-12-31T01:29:58.903Z,8.66
2022-12-31T01:30:08.908Z,8.66
2022-12-31T01:30:18.919Z,8.66
2022-12-31T01:30:28.915Z,8.67
2022-12-31T01:30:38.929Z,8.67
2022-12-31T01:30:48.928Z,8.67
2022-12-31T01:30:58.925Z,8.67
2022-12-31T01:31:09.004Z,8.67
2022-12-31T01:31:19.000Z,8.64
2022-12-31T01:31:28.929Z,8.67
2022-12-31T01:31:38.910Z,8.69
2022-12-31T01:31:48.910Z,8.67
2022-12-31T01:31:58.911Z,8.67
2022-12-31T01:32:08.915Z,8.66
2022-12-31T01:32:18.935Z,8.67
2022-12-31T01:32:28.908Z,8.67
2022-12-31T01:32:38.916Z,8.66
2022-12-31T01:32:48.923Z,8.67
2022-12-31T01:32:58.917Z,8.67
2022-12-31T01:33:08.914Z,8.67
2022-12-31T01:33:18.950Z,8.69
2022-12-31T01:33:28.912Z,8.67
2022-12-31T01:33:38.919Z,8.67
2022-12-31T01:33:48.918Z,8.69
2022-12-31T01:33:58.924Z,8.69
2022-12-31T01:34:08.915Z,8.67
2022-12-31T01:34:18.924Z,8.67
2022-12-31T01:34:28.943Z,8.67
2022-12-31T01:34:38.925Z,8.67
2022-12-31T01:34:48.927Z,8.67
2022-12-31T01:34:58.923Z,8.66
2022-12-31T01:35:08.937Z,8.67
2022-12-31T01:35:18.926Z,8.67
2022-12-31T01:35:28.923Z,8.67
2022-12-31T01:35:38.925Z,8.67
2022-12-31T01:35:48.946Z,8.67
2022-12-31T01:35:58.920Z,8.67
2022-12-31T01:36:08.922Z,8.67
2022-12-31T01:36:23.598Z,8.67
2022-12-31T01:36:29.938Z,8.66
2022-12-31T01:36:38.933Z,8.69
2022-12-31T01:36:48.938Z,8.67
2022-12-31T01:36:58.943Z,8.69
2022-12-31T01:37:08.923Z,8.69
2022-12-31T01:37:18.940Z,8.69
2022-12-31T01:37:28.933Z,8.69
2022-12-31T01:37:38.945Z,8.69
2022-12-31T01:37:48.956Z,8.70
2022-12-31T01:37:58.934Z,8.69
2022-12-31T01:38:08.935Z,8.69
2022-12-31T01:38:18.946Z,8.70
2022-12-31T01:38:28.938Z,8.70
2022-12-31T01:38:38.945Z,8.72
2022-12-31T01:38:48.954Z,8.75
2022-12-31T01:38:58.940Z,8.75
2022-12-31T01:39:08.977Z,8.73
2022-12-31T01:39:18.947Z,8.75
2022-12-31T01:39:28.942Z,8.73
2022-12-31T01:39:38.943Z,8.75
2022-12-31T01:39:48.954Z,8.73
2022-12-31T01:39:58.942Z,8.75
2022-12-31T01:40:09.158Z,8.75
2022-12-31T01:40:18.947Z,8.75
2022-12-31T01:40:28.956Z,8.75
2022-12-31T01:40:38.945Z,8.75
2022-12-31T01:40:48.964Z,8.75
2022-12-31T01:40:58.950Z,8.75
2022-12-31T01:41:08.972Z,8.77
2022-12-31T01:41:18.966Z,8.77
2022-12-31T01:41:28.955Z,8.75
2022-12-31T01:41:38.950Z,8.75
2022-12-31T01:41:48.955Z,8.77
2022-12-31T01:41:58.948Z,8.77
2022-12-31T01:42:08.948Z,8.77
2022-12-31T01:42:18.965Z,8.77
2022-12-31T01:42:28.956Z,8.78
2022-12-31T01:42:38.955Z,8.77
2022-12-31T01:42:48.961Z,8.78
2022-12-31T01:42:58.952Z,8.77
2022-12-31T01:43:08.959Z,8.77
2022-12-31T01:43:18.969Z,8.78
2022-12-31T01:43:28.961Z,8.77
2022-12-31T01:43:38.963Z,8.77
2022-12-31T01:43:48.987Z,8.77
2022-12-31T01:43:58.998Z,8.77
2022-12-31T01:44:08.968Z,8.75
2022-12-31T01:44:18.978Z,8.75
2022-12-31T01:44:28.971Z,8.75
2022-12-31T01:44:38.962Z,8.75
2022-12-31T01:44:48.964Z,8.75
2022-12-31T01:44:58.966Z,8.75
2022-12-31T01:45:08.968Z,8.75
2022-12-31T01:45:18.977Z,8.75
2022-12-31T01:45:28.965Z,8.77
2022-12-31T01:45:38.983Z,8.78
2022-12-31T01:45:48.973Z,8.78
2022-12-31T01:45:59.004Z,8.78
2022-12-31T01:46:09.004Z,8.78
2022-12-31T01:46:19.015Z,8.78
2022-12-31T01:46:29.011Z,8.78
2022-12-31T01:46:39.049Z,8.77
2022-12-31T01:46:48.973Z,8.77
2022-12-31T01:46:58.981Z,8.77
2022-12-31T01:47:08.976Z,8.77
2022-12-31T01:47:18.974Z,8.75
2022-12-31T01:47:28.981Z,8.77
2022-12-31T01:47:38.979Z,8.75
2022-12-31T01:47:48.978Z,8.73
2022-12-31T01:47:58.985Z,8.75
2022-12-31T01:48:08.982Z,8.75
2022-12-31T01:48:18.998Z,8.75
2022-12-31T01:48:28.980Z,8.75
2022-12-31T01:48:38.976Z,8.75
2022-12-31T01:48:48.976Z,8.75
2022-12-31T01:48:58.984Z,8.77
2022-12-31T01:49:08.989Z,8.73
2022-12-31T01:49:18.991Z,8.75
2022-12-31T01:49:28.984Z,8.75
2022-12-31T01:49:38.988Z,8.75
2022-12-31T01:49:48.988Z,8.75
2022-12-31T01:49:58.987Z,8.75
2022-12-31T01:50:08.993Z,8.78
2022-12-31T01:50:18.981Z,8.75
2022-12-31T01:50:28.987Z,8.77
2022-12-31T01:50:38.992Z,8.78
2022-12-31T01:50:48.987Z,8.78
2022-12-31T01:50:59.003Z,8.78
2022-12-31T01:51:09.008Z,8.80
2022-12-31T01:51:18.985Z,8.78
2022-12-31T01:51:28.995Z,8.78
2022-12-31T01:51:39.004Z,8.78
2022-12-31T01:51:48.998Z,8.78
2022-12-31T01:51:58.997Z,8.78
2022-12-31T01:52:09.010Z,8.78
2022-12-31T01:52:18.992Z,8.78
2022-12-31T01:52:28.998Z,8.80
2022-12-31T01:52:39.012Z,8.78
2022-12-31T01:52:48.994Z,8.80
2022-12-31T01:52:59.022Z,8.78
2022-12-31T01:53:09.006Z,8.80
2022-12-31T01:53:18.996Z,8.78
2022-12-31T01:53:29.007Z,8.81
2022-12-31T01:53:40.900Z,8.81
2022-12-31T01:53:49.017Z,8.80
2022-12-31T01:53:58.998Z,8.80
2022-12-31T01:54:09.045Z,8.80
2022-12-31T01:54:18.997Z,8.81
2022-12-31T01:54:29.020Z,8.80
2022-12-31T01:54:39.010Z,8.81
2022-12-31T01:54:49.002Z,8.81
2022-12-31T01:54:59.005Z,8.81
2022-12-31T01:55:09.012Z,8.81
2022-12-31T01:55:19.006Z,8.81
2022-12-31T01:55:29.002Z,8.81
2022-12-31T01:55:39.012Z,8.80
2022-12-31T01:55:49.003Z,8.80
2022-12-31T01:55:59.009Z,8.81
2022-12-31T01:56:09.007Z,8.82
2022-12-31T01:56:19.008Z,8.81
2022-12-31T01:56:29.015Z,8.81
2022-12-31T01:56:39.022Z,8.81
2022-12-31T01:56:49.014Z,8.84
2022-12-31T01:56:59.011Z,8.81
2022-12-31T01:57:09.016Z,8.82
2022-12-31T01:57:19.012Z,8.82
2022-12-31T01:57:29.016Z,8.82
2022-12-31T01:57:39.011Z,8.81
2022-12-31T01:57:49.015Z,8.80
2022-12-31T01:57:59.076Z,8.81
2022-12-31T01:58:09.046Z,8.82
2022-12-31T01:58:19.033Z,8.82
2022-12-31T01:58:29.037Z,8.84
2022-12-31T01:58:39.018Z,8.84
2022-12-31T01:58:49.018Z,8.82
2022-12-31T01:58:59.025Z,8.84
2022-12-31T01:59:09.048Z,8.84
2022-12-31T01:59:19.026Z,8.84
2022-12-31T01:59:29.027Z,8.82
2022-12-31T01:59:39.021Z,8.84
2022-12-31T01:59:49.028Z,8.84
2022-12-31T01:59:59.032Z,8.82
2022-12-31T02:00:09.041Z,8.84
2022-12-31T02:00:19.041Z,8.84
2022-12-31T02:00:29.030Z,8.84
2022-12-31T02:00:39.030Z,8.82
2022-12-31T02:00:49.033Z,8.84
2022-12-31T02:00:59.117Z,8.85
2022-12-31T02:01:09.043Z,8.85
2022-12-31T02:01:19.133Z,8.84
2022-12-31T02:01:29.166Z,8.84
2022-12-31T02:01:39.136Z,8.85
2022-12-31T02:01:49.148Z,8.85
2022-12-31T02:01:59.231Z,8.85
2022-12-31T02:02:09.079Z,8.85
2022-12-31T02:02:19.154Z,8.85
2022-12-31T02:02:29.139Z,8.85
2022-12-31T02:02:39.157Z,8.84
2022-12-31T02:02:49.088Z,8.85
2022-12-31T02:02:59.077Z,8.84
2022-12-31T02:03:09.064Z,8.82
2022-12-31T02:03:19.081Z,8.84
2022-12-31T02:03:29.089Z,8.84
2022-12-31T02:03:39.053Z,8.85
2022-12-31T02:03:49.047Z,8.84
2022-12-31T02:03:59.040Z,8.84
2022-12-31T02:04:09.034Z,8.84
2022-12-31T02:04:19.053Z,8.84
2022-12-31T02:04:29.049Z,8.84
2022-12-31T02:04:39.039Z,8.84
2022-12-31T02:04:49.045Z,8.82
2022-12-31T02:04:59.057Z,8.82
2022-12-31T02:05:09.049Z,8.81
2022-12-31T02:05:19.044Z,8.82
2022-12-31T02:05:29.048Z,8.84
2022-12-31T02:05:39.044Z,8.82
2022-12-31T02:05:49.062Z,8.85
2022-12-31T02:05:59.092Z,8.84
2022-12-31T02:06:09.050Z,8.85
2022-12-31T02:06:19.056Z,8.87
2022-12-31T02:06:29.059Z,8.87
2022-12-31T02:06:39.051Z,8.88
2022-12-31T02:06:49.050Z,8.85
2022-12-31T02:06:59.059Z,8.87
2022-12-31T02:07:09.117Z,8.87
2022-12-31T02:07:19.054Z,8.87
2022-12-31T02:07:29.061Z,8.87
2022-12-31T02:07:39.056Z,8.87
2022-12-31T02:07:49.060Z,8.88
2022-12-31T02:07:59.054Z,8.87
2022-12-31T02:08:09.058Z,8.90
2022-12-31T02:08:19.061Z,8.88
2022-12-31T02:08:29.070Z,8.87
2022-12-31T02:08:42.177Z,8.90
2022-12-31T02:08:49.060Z,8.88
2022-12-31T02:08:59.065Z,8.90
2022-12-31T02:09:09.064Z,8.90
2022-12-31T02:09:19.085Z,8.88
2022-12-31T02:09:29.078Z,8.90
2022-12-31T02:09:39.064Z,8.91
2022-12-31T02:09:49.097Z,8.90
2022-12-31T02:09:59.071Z,8.91
2022-12-31T02:10:09.076Z,8.91
2022-12-31T02:10:19.075Z,8.93
2022-12-31T02:10:29.076Z,8.90
2022-12-31T02:10:39.065Z,8.91
2022-12-31T02:10:49.075Z,8.91
2022-12-31T02:10:59.075Z,8.91
2022-12-31T02:11:09.069Z,8.91
2022-12-31T02:11:19.069Z,8.90
2022-12-31T02:11:29.078Z,8.90
2022-12-31T02:11:39.101Z,8.91
2022-12-31T02:11:49.076Z,8.90
2022-12-31T02:11:59.080Z,8.91
2022-12-31T02:12:09.080Z,8.90
2022-12-31T02:12:19.087Z,8.90
2022-12-31T02:12:29.092Z,8.90
2022-12-31T02:12:39.079Z,8.91
2022-12-31T02:12:49.075Z,8.88
2022-12-31T02:12:59.096Z,8.91
2022-12-31T02:13:09.078Z,8.90
2022-12-31T02:13:19.078Z,8.91
2022-12-31T02:13:29.111Z,8.91
2022-12-31T02:13:39.082Z,8.93